This is the latest recevied weather packets stored in our database for station/object VA3JLF-1. If no packets are shown the sender has not sent any weather packets the latest 10 day(s).
| Time | Temp. | Humidity | Pressure | Rain* | Wind** | Luminosity | Snow |
|---|---|---|---|---|---|---|---|
| 1777979159 | 13.89° C | 85% | 996.9 hPa | 0 mm | - | - | - |
| 1777978559 | 14.44° C | 85% | 996.9 hPa | 0 mm | - | - | - |
| 1777977959 | 14.44° C | 85% | 996.9 hPa | 0 mm | - | - | - |
| 1777977358 | 14.44° C | 85% | 996.7 hPa | 0 mm | - | - | - |
| 1777976757 | 14.44° C | 85% | 996.6 hPa | 0 mm | - | - | - |
| 1777976158 | 14.44° C | 85% | 996.6 hPa | 0 mm | - | - | - |
| 1777975558 | 13.89° C | 87% | 996.6 hPa | 0 mm | - | - | - |
| 1777974958 | 13.33° C | 87% | 996.4 hPa | 0 mm | - | - | - |
| 1777974358 | 13.33° C | 88% | 996.5 hPa | 0 mm | - | - | - |
| 1777973758 | 12.78° C | 91% | 996.4 hPa | 0 mm | - | - | - |
| 1777973158 | 12.22° C | 95% | 996.6 hPa | 0 mm | - | - | - |
| 1777972558 | 11.11° C | 98% | 996.9 hPa | 0.25 mm | - | - | - |
| 1777971957 | 11.11° C | 97% | 996.8 hPa | 0.76 mm | - | - | - |
| 1777971358 | 11.11° C | 97% | 996.8 hPa | 1.02 mm | - | - | - |
| 1777970757 | 11.67° C | 97% | 996.8 hPa | 1.02 mm | - | - | - |
| 1777970158 | 11.67° C | 97% | 996.9 hPa | 1.27 mm | - | - | - |
| 1777969558 | 12.22° C | 96% | 997 hPa | 1.27 mm | - | - | - |
| 1777968958 | 12.22° C | 95% | 997.1 hPa | 1.02 mm | - | - | - |
| 1777968357 | 13.33° C | 90% | 997.1 hPa | 0.51 mm | - | - | - |
| 1777967758 | 14.44° C | 87% | 997.2 hPa | 0.25 mm | - | - | - |
| 1777967157 | 14.44° C | 85% | 997.3 hPa | 0.25 mm | - | - | - |
| 1777966558 | 15° C | 81% | 997.4 hPa | 0 mm | - | - | - |
| 1777965958 | 15° C | 81% | 997.6 hPa | 0 mm | - | - | - |
| 1777965357 | 15° C | 81% | 997.5 hPa | 0 mm | - | - | - |
| 1777964757 | 15° C | 81% | 997.5 hPa | 0 mm | - | - | - |
* Rain latest hour (hover to see other rain measurements)
** Current wind speed in m/s (hover to see current wind gust speed)